Time;durP1;ratioP1;P1;durP2;ratioP2;P2;SDS_P1;SDS_P2;PMS_P1;PMS_P2;Temp;Humidity;BMP_temperature;BMP_pressure;BME280_temperature;BME280_humidity;BME280_pressure;Samples;Min_cycle;Max_cycle;Signal;HPM_P1;HPM_P2
2022/12/12 00:00:41;;;;;;;34.10;15.13;;;;;;;-1.71;92.59;99575.09;1684427;85;21026;-73
2022/12/12 00:03:11;;;;;;;33.27;15.27;;;;;;;-1.73;92.55;99572.51;1684479;83;20999;-74
2022/12/12 00:05:39;;;;;;;33.63;15.43;;;;;;;-1.73;92.60;99570.38;1684490;84;21007;-73
2022/12/12 00:08:06;;;;;;;34.80;16.23;;;;;;;-1.74;92.54;99573.81;1684739;83;21278;-73
2022/12/12 00:10:34;;;;;;;33.60;15.33;;;;;;;-1.75;92.67;99565.66;1684535;85;21120;-74
2022/12/12 00:13:02;;;;;;;30.80;14.50;;;;;;;-1.75;92.75;99560.09;1684731;84;21521;-74
2022/12/12 00:15:29;;;;;;;30.70;15.03;;;;;;;-1.74;92.71;99563.54;1684477;84;21035;-73
2022/12/12 00:17:56;;;;;;;29.20;14.87;;;;;;;-1.73;92.78;99566.09;1684819;84;21049;-73
2022/12/12 00:20:23;;;;;;;28.67;14.50;;;;;;;-1.71;92.79;99566.10;1684454;84;21034;-74
2022/12/12 00:22:50;;;;;;;29.10;14.57;;;;;;;-1.71;92.82;99560.96;1684536;85;22123;-73
2022/12/12 00:25:17;;;;;;;29.20;15.33;;;;;;;-1.68;92.89;99569.95;1689863;84;21106;-73
2022/12/12 00:27:44;;;;;;;27.83;14.77;;;;;;;-1.69;92.76;99568.22;1692870;84;21003;-74
2022/12/12 00:30:12;;;;;;;35.40;16.70;;;;;;;-1.68;92.78;99571.23;1692899;84;20994;-74
2022/12/12 00:32:39;;;;;;;34.10;15.37;;;;;;;-1.70;92.72;99571.66;1692964;84;21090;-74
2022/12/12 00:35:07;;;;;;;30.20;15.67;;;;;;;-1.69;92.76;99572.07;1692973;84;21182;-76
2022/12/12 00:37:34;;;;;;;30.07;14.97;;;;;;;-1.72;92.68;99565.22;1692865;84;21030;-74
2022/12/12 00:40:02;;;;;;;35.60;16.23;;;;;;;-1.72;92.82;99567.79;1693025;84;21085;-73
2022/12/12 00:42:30;;;;;;;32.03;16.10;;;;;;;-1.74;92.65;99566.95;1692893;84;21025;-74
2022/12/12 00:44:57;;;;;;;28.53;15.07;;;;;;;-1.74;92.74;99573.81;1692856;84;21003;-73
2022/12/12 00:47:24;;;;;;;31.63;14.33;;;;;;;-1.75;92.72;99564.38;1692941;84;21935;-73
2022/12/12 00:49:51;;;;;;;27.77;14.93;;;;;;;-1.75;92.83;99575.50;1693070;84;21030;-74
2022/12/12 00:52:18;;;;;;;33.07;16.43;;;;;;;-1.76;92.81;99579.38;1692905;84;21035;-74
2022/12/12 00:54:45;;;;;;;34.20;15.87;;;;;;;-1.76;92.82;99581.51;1693228;84;21098;-76
2022/12/12 00:57:12;;;;;;;31.43;14.50;;;;;;;-1.77;92.87;99581.09;1692927;84;21015;-73
2022/12/12 00:59:39;;;;;;;32.47;14.97;;;;;;;-1.75;92.97;99579.36;1693168;84;21489;-73
2022/12/12 01:02:07;;;;;;;34.90;15.53;;;;;;;-1.74;93.00;99581.52;1692822;84;21072;-73
2022/12/12 01:04:34;;;;;;;30.93;15.47;;;;;;;-1.74;92.91;99581.52;1693108;84;21038;-74
2022/12/12 01:07:01;;;;;;;31.57;15.77;;;;;;;-1.74;92.78;99577.67;1692857;84;21533;-73
2022/12/12 01:09:28;;;;;;;32.93;16.40;;;;;;;-1.77;92.79;99575.95;1693252;84;21037;-74
2022/12/12 01:11:55;;;;;;;29.60;14.67;;;;;;;-1.76;92.96;99578.09;1692907;84;21282;-73
2022/12/12 01:14:22;;;;;;;31.23;15.30;;;;;;;-1.75;92.97;99581.07;1693010;84;21516;-73
2022/12/12 01:16:49;;;;;;;32.10;16.40;;;;;;;-1.76;92.96;99576.37;1692857;84;21070;-73
2022/12/12 01:19:16;;;;;;;35.00;16.87;;;;;;;-1.74;92.92;99581.52;1692929;84;21000;-74
2022/12/12 01:21:43;;;;;;;30.77;16.13;;;;;;;-1.75;93.02;99576.78;1692829;84;21086;-73
2022/12/12 01:24:11;;;;;;;33.40;15.87;;;;;;;-1.76;92.93;99584.52;1692591;84;21139;-74
2022/12/12 01:26:38;;;;;;;30.20;15.10;;;;;;;-1.76;92.96;99582.79;1684358;84;21476;-74
2022/12/12 01:29:06;;;;;;;34.23;16.43;;;;;;;-1.78;92.88;99583.21;1684466;84;21039;-74
2022/12/12 01:31:33;;;;;;;31.97;15.70;;;;;;;-1.79;93.00;99586.65;1685089;84;21470;-73
2022/12/12 01:34:00;;;;;;;30.73;15.40;;;;;;;-1.78;93.15;99581.92;1684394;85;21420;-73
2022/12/12 01:36:31;;;;;;;27.57;15.73;;;;;;;-1.76;93.20;99579.38;1684705;85;22076;-73
2022/12/12 01:38:59;;;;;;;28.30;15.68;;;;;;;-1.75;93.16;99584.49;1684635;83;21038;-73
2022/12/12 01:41:26;;;;;;;27.70;15.13;;;;;;;-1.74;93.09;99581.52;1684829;84;21595;-73
2022/12/12 01:43:54;;;;;;;35.10;16.70;;;;;;;-1.74;93.20;99578.95;1667274;85;21065;-73
2022/12/12 01:46:41;;;;;;;27.33;14.90;;;;;;;-1.72;93.19;99577.22;1682566;83;21049;-73
2022/12/12 01:49:22;;;;;;;29.20;15.03;;;;;;;-1.72;93.24;99576.78;1684475;85;21103;-73
2022/12/12 01:51:54;;;;;;;30.13;15.47;;;;;;;-1.69;93.44;99581.95;1667648;83;21968;-73
2022/12/12 01:54:25;;;;;;;30.83;14.90;;;;;;;-1.66;93.41;99584.52;1684223;85;21485;-74
2022/12/12 01:56:56;;;;;;;30.87;15.53;;;;;;;-1.65;93.34;99582.36;1685250;85;21519;-73
2022/12/12 01:59:25;;;;;;;27.98;15.32;;;;;;;-1.66;93.20;99578.52;1661768;85;21536;-73
2022/12/12 02:01:54;;;;;;;28.10;14.68;;;;;;;-1.68;93.22;99579.79;1685367;85;21108;-73
2022/12/12 02:04:23;;;;;;;31.07;16.10;;;;;;;-1.67;93.43;99578.07;1684794;85;20961;-73
2022/12/12 02:06:52;;;;;;;32.07;15.60;;;;;;;-1.66;93.35;99580.66;1685154;85;21084;-73
2022/12/12 02:09:20;;;;;;;30.57;15.90;;;;;;;-1.66;93.35;99579.38;1684955;85;21025;-73
2022/12/12 02:11:51;;;;;;;26.03;14.67;;;;;;;-1.66;93.29;99578.09;1685224;85;21025;-73
2022/12/12 02:14:22;;;;;;;32.10;15.37;;;;;;;-1.66;93.45;99581.94;1684843;85;21188;-74
2022/12/12 02:17:11;;;;;;;27.23;15.57;;;;;;;-1.64;93.40;99582.77;1684636;85;20929;-74
2022/12/12 02:19:53;;;;;;;29.57;15.37;;;;;;;-1.65;93.27;99583.64;1666566;85;21001;-74
2022/12/12 02:22:28;;;;;;;27.77;15.30;;;;;;;-1.67;93.27;99579.36;1684951;85;21029;-73
2022/12/12 02:25:20;;;;;;;27.13;15.10;;;;;;;-1.65;93.48;99584.08;1684963;85;21025;-73
2022/12/12 02:28:05;;;;;;;26.03;14.77;;;;;;;-1.67;93.33;99580.20;1684972;85;21966;-73
2022/12/12 02:31:06;;;;;;;31.93;16.07;;;;;;;-1.66;93.48;99580.66;1684935;85;21085;-73
2022/12/12 02:33:50;;;;;;;30.23;16.00;;;;;;;-1.67;93.40;99584.06;1669141;85;21347;-73
2022/12/12 02:36:31;;;;;;;28.13;14.77;;;;;;;-1.67;93.46;99582.78;1655412;86;21042;-73
2022/12/12 02:39:36;;;;;;;27.23;15.43;;;;;;;-1.67;93.55;99585.34;1666293;85;21016;-73
2022/12/12 02:42:11;;;;;;;31.50;16.33;;;;;;;-1.65;93.61;99577.22;1652005;86;21346;-74
2022/12/12 02:44:54;;;;;;;28.27;16.07;;;;;;;-1.67;93.51;99585.34;1656703;86;21060;-74
2022/12/12 02:47:29;;;;;;;29.73;16.00;;;;;;;-1.67;93.60;99580.20;1684601;84;21094;-74
2022/12/12 02:50:19;;;;;;;29.70;15.63;;;;;;;-1.68;93.68;99584.93;1684640;85;21013;-73
2022/12/12 02:52:48;;;;;;;29.70;15.32;;;;;;;-1.67;93.60;99580.64;1655810;86;21296;-73
2022/12/12 02:55:17;;;;;;;33.73;15.50;;;;;;;-1.72;93.49;99578.06;1684522;83;21143;-74
2022/12/12 02:57:46;;;;;;;28.10;15.87;;;;;;;-1.70;93.67;99578.92;1684833;85;21048;-75
2022/12/12 03:00:16;;;;;;;28.50;15.07;;;;;;;-1.69;93.64;99585.80;1684611;85;21009;-74
2022/12/12 03:09:17;;;;;;;29.13;14.93;;;;;;;-1.67;93.87;99581.92;1646077;85;21057;-74
2022/12/12 03:12:07;;;;;;;29.13;14.93;;;;;;;-1.68;93.90;99574.66;1683489;85;21054;-74
2022/12/12 03:14:55;;;;;;;25.48;14.58;;;;;;;-1.64;94.08;99580.64;1683017;85;21553;-74
2022/12/12 03:17:42;;;;;;;30.27;15.70;;;;;;;-1.63;94.02;99583.22;1683601;85;21615;-73
2022/12/12 03:20:29;;;;;;;27.40;14.77;;;;;;;-1.62;94.03;99586.20;1684243;85;21103;-73
2022/12/12 03:23:05;;;;;;;30.13;14.23;;;;;;;-1.60;94.02;99583.65;1683634;85;21148;-73
2022/12/12 03:25:37;;;;;;;28.53;14.53;;;;;;;-1.57;94.09;99575.50;1676172;84;21039;-73
2022/12/12 03:28:11;;;;;;;29.17;15.70;;;;;;;-1.57;93.99;99575.93;1691762;84;21023;-73
2022/12/12 03:30:49;;;;;;;29.03;15.50;;;;;;;-1.55;94.07;99578.48;1691602;84;21129;-73
2022/12/12 03:33:38;;;;;;;33.87;16.50;;;;;;;-1.54;94.11;99579.78;1692443;84;21035;-74
2022/12/12 03:36:16;;;;;;;28.73;15.10;;;;;;;-1.54;93.93;99580.22;1692336;84;21148;-73
2022/12/12 03:38:55;;;;;;;28.77;15.30;;;;;;;-1.53;94.08;99580.63;1692316;84;21023;-77
2022/12/12 03:41:21;;;;;;;28.93;15.07;;;;;;;-1.52;94.15;99580.64;1692132;84;21058;-74
2022/12/12 03:44:05;;;;;;;27.43;14.97;;;;;;;-1.48;94.27;99582.77;1657691;84;21458;-74
2022/12/12 03:46:46;;;;;;;28.77;15.87;;;;;;;-1.48;94.21;99582.33;1669233;85;21088;-73
2022/12/12 03:49:21;;;;;;;27.90;14.70;;;;;;;-1.47;94.07;99578.92;1686679;84;21127;-73
2022/12/12 03:51:53;;;;;;;30.33;15.63;;;;;;;-1.49;94.00;99580.63;1688077;84;21016;-73
2022/12/12 03:54:26;;;;;;;27.83;14.63;;;;;;;-1.50;94.00;99574.20;1687798;84;21014;-73
2022/12/12 03:57:24;;;;;;;30.67;16.23;;;;;;;-1.51;94.07;99568.64;1688158;84;21308;-72
2022/12/12 04:00:05;;;;;;;29.07;14.53;;;;;;;-1.51;94.02;99566.07;1687334;84;21503;-73
2022/12/12 04:02:56;;;;;;;28.27;14.97;;;;;;;-1.52;94.01;99565.63;1687226;84;21131;-73
2022/12/12 04:12:57;;;;;;;39.50;17.93;;;;;;;-1.53;94.12;99568.63;1688091;84;21037;-73
2022/12/12 04:14:23;;;;;;;36.20;18.10;;;;;;;-1.57;94.13;99565.66;1688273;84;21049;-76
2022/12/12 04:16:59;;;;;;;30.50;17.37;;;;;;;-1.58;94.17;99570.34;1687035;84;21993;-73
2022/12/12 04:23:13;;;;;;;;;;;;;;;-1.58;94.23;99579.34;1689761;84;20995;-73
2022/12/12 04:24:51;;;;;;;76.00;31.97;;;;;;;-1.59;94.46;99577.64;1672004;85;20965;-73
2022/12/12 04:27:32;;;;;;;32.07;14.93;;;;;;;-1.59;94.39;99573.34;1697256;83;21033;-73
2022/12/12 04:30:10;;;;;;;30.90;15.90;;;;;;;-1.59;94.36;99569.93;1698714;84;21149;-73
2022/12/12 04:32:51;;;;;;;35.03;17.27;;;;;;;-1.59;94.46;99568.64;1698772;83;21040;-73
2022/12/12 04:35:40;;;;;;;29.33;15.23;;;;;;;-1.61;94.51;99557.50;1697027;83;21518;-73
2022/12/12 04:38:12;;;;;;;30.10;15.57;;;;;;;-1.59;94.64;99554.52;1681283;83;21017;-73
2022/12/12 04:40:43;;;;;;;34.73;16.70;;;;;;;-1.58;94.60;99551.95;1674589;83;21089;-73
2022/12/12 04:43:16;;;;;;;28.27;16.07;;;;;;;-1.58;94.66;99558.37;1698098;84;21969;-73
2022/12/12 04:45:51;;;;;;;36.93;22.03;;;;;;;-1.58;94.64;99553.64;1697143;84;21010;-73
2022/12/12 04:48:29;;;;;;;44.60;18.97;;;;;;;-1.56;94.80;99551.94;1699043;84;21022;-74
2022/12/12 04:50:58;;;;;;;28.17;15.80;;;;;;;-1.54;94.82;99554.52;1698862;84;21551;-73
2022/12/12 04:53:33;;;;;;;27.37;15.33;;;;;;;-1.52;94.83;99556.63;1699042;84;21033;-74
2022/12/12 04:56:06;;;;;;;26.57;13.87;;;;;;;-1.52;94.76;99557.91;1699022;84;21377;-73
2022/12/12 04:58:33;;;;;;;38.80;19.40;;;;;;;-1.50;94.86;99553.64;1698739;84;21419;-73
2022/12/12 05:01:23;;;;;;;37.10;20.53;;;;;;;-1.49;94.90;99554.09;1698880;84;21550;-73
2022/12/12 05:04:01;;;;;;;24.90;13.88;;;;;;;-1.48;94.91;99557.06;1698643;83;21014;-73
2022/12/12 05:06:33;;;;;;;31.13;16.20;;;;;;;-1.47;94.92;99550.66;1698907;83;21299;-72
2022/12/12 05:09:01;;;;;;;27.67;16.13;;;;;;;-1.44;95.07;99553.22;1677460;84;21101;-73
2022/12/12 05:11:29;;;;;;;24.93;14.50;;;;;;;-1.42;95.12;99552.76;1677508;84;21013;-73
2022/12/12 05:13:56;;;;;;;26.97;14.33;;;;;;;-1.39;95.09;99558.33;1677364;84;21017;-72
2022/12/12 05:16:36;;;;;;;26.83;14.17;;;;;;;-1.38;95.00;99556.20;1677922;84;21511;-76
2022/12/12 05:19:04;;;;;;;25.02;14.33;;;;;;;-1.38;94.95;99551.91;1677457;84;21310;-73
2022/12/12 05:21:31;;;;;;;31.60;17.80;;;;;;;-1.38;94.95;99551.91;1677279;85;21417;-73
2022/12/12 05:23:58;;;;;;;26.93;14.60;;;;;;;-1.37;94.99;99551.47;1677511;84;21088;-73
2022/12/12 05:26:32;;;;;;;25.50;14.57;;;;;;;-1.37;95.01;99554.05;1676439;84;21002;-73
2022/12/12 05:29:00;;;;;;;24.33;13.30;;;;;;;-1.36;95.03;99557.03;1682494;85;21459;-73
2022/12/12 05:31:27;;;;;;;31.93;15.43;;;;;;;-1.36;95.05;99554.46;1682981;85;21017;-73
2022/12/12 05:33:54;;;;;;;26.97;14.27;;;;;;;-1.36;95.08;99548.91;1682332;85;21507;-73
2022/12/12 05:36:22;;;;;;;54.10;22.27;;;;;;;-1.33;95.14;99550.63;1664705;85;21065;-73
2022/12/12 05:38:49;;;;;;;32.70;16.73;;;;;;;-1.32;95.15;99547.62;1684999;85;21041;-74
2022/12/12 05:41:16;;;;;;;26.33;14.53;;;;;;;-1.30;95.11;99553.59;1661433;85;21009;-74
2022/12/12 05:43:44;;;;;;;50.03;20.47;;;;;;;-1.31;95.11;99548.88;1685029;85;21013;-75
2022/12/12 05:46:11;;;;;;;42.97;18.37;;;;;;;-1.27;95.28;99562.17;1684906;85;21925;-72
2022/12/12 05:48:38;;;;;;;25.63;13.60;;;;;;;-1.25;95.29;99550.14;1684870;85;21024;-73
2022/12/12 05:51:06;;;;;;;25.70;12.90;;;;;;;-1.24;95.15;99552.31;1684941;85;21513;-72
2022/12/12 05:53:33;;;;;;;25.43;13.27;;;;;;;-1.24;95.11;99551.87;1684933;85;21057;-72
2022/12/12 05:56:00;;;;;;;27.00;14.37;;;;;;;-1.23;95.21;99555.30;1684942;85;22224;-72
2022/12/12 05:58:27;;;;;;;52.47;23.50;;;;;;;-1.21;95.21;99558.73;1685167;85;21118;-72
2022/12/12 06:00:54;;;;;;;29.80;14.13;;;;;;;-1.19;95.26;99560.44;1684965;85;21061;-72
2022/12/12 06:03:21;;;;;;;33.90;16.53;;;;;;;-1.17;95.27;99561.27;1685134;85;21009;-72
2022/12/12 06:05:48;;;;;;;48.37;21.60;;;;;;;-1.16;95.13;99558.29;1685058;85;21024;-73
2022/12/12 06:08:15;;;;;;;28.67;14.87;;;;;;;-1.16;95.02;99558.29;1685253;85;21017;-72
2022/12/12 06:10:44;;;;;;;20.20;11.53;;;;;;;-1.19;94.96;99559.55;1684915;85;21510;-72
2022/12/12 06:13:11;;;;;;;21.67;11.67;;;;;;;-1.21;94.93;99565.16;1685179;85;21049;-72
2022/12/12 06:15:40;;;;;;;18.40;10.87;;;;;;;-1.22;95.00;99557.88;1684967;85;21064;-72
2022/12/12 06:18:11;;;;;;;22.30;11.63;;;;;;;-1.20;95.03;99560.42;1685206;85;21037;-76
2022/12/12 06:20:38;;;;;;;22.82;11.53;;;;;;;-1.22;95.06;99569.85;1685034;85;21530;-72
2022/12/12 06:23:06;;;;;;;20.80;11.53;;;;;;;-1.23;95.02;99572.86;1685181;85;21127;-72
2022/12/12 06:25:34;;;;;;;18.77;10.57;;;;;;;-1.23;95.02;99568.16;1684855;85;21029;-72
2022/12/12 06:28:01;;;;;;;45.60;19.67;;;;;;;-1.22;95.13;99572.42;1677451;85;21444;-72
2022/12/12 06:30:28;;;;;;;19.40;11.57;;;;;;;-1.22;95.07;99572.42;1676928;84;21032;-73
2022/12/12 06:32:56;;;;;;;20.23;11.13;;;;;;;-1.23;95.08;99574.14;1677276;85;20998;-73
2022/12/12 06:35:23;;;;;;;20.67;10.63;;;;;;;-1.24;95.06;99572.88;1677120;84;21511;-72
2022/12/12 06:37:50;;;;;;;20.63;11.00;;;;;;;-1.24;95.14;99580.16;1677026;84;20953;-72
2022/12/12 06:40:17;;;;;;;27.17;13.30;;;;;;;-1.24;95.19;99578.88;1677048;84;20998;-72
2022/12/12 06:42:44;;;;;;;21.67;11.80;;;;;;;-1.24;95.11;99584.45;1677105;84;21048;-72
2022/12/12 06:45:11;;;;;;;15.50;10.10;;;;;;;-1.24;95.05;99584.02;1677010;84;21034;-72
2022/12/12 06:47:39;;;;;;;20.13;11.03;;;;;;;-1.26;95.04;99587.45;1677033;84;21149;-72
2022/12/12 06:50:06;;;;;;;18.03;10.50;;;;;;;-1.26;95.13;99592.16;1677029;84;21467;-73
2022/12/12 06:52:33;;;;;;;19.73;11.03;;;;;;;-1.28;95.03;99586.15;1676996;84;21037;-72
2022/12/12 06:55:00;;;;;;;26.97;13.60;;;;;;;-1.28;95.22;99586.15;1677413;84;21056;-72
2022/12/12 06:57:27;;;;;;;22.93;12.37;;;;;;;-1.26;95.36;99588.73;1676346;84;21083;-71
2022/12/12 06:59:55;;;;;;;26.40;13.90;;;;;;;-1.25;95.26;99594.29;1683709;84;22035;-71
2022/12/12 07:02:22;;;;;;;15.03;9.93;;;;;;;-1.25;95.29;99600.28;1674683;84;21645;-70
2022/12/12 07:04:49;;;;;;;17.90;10.50;;;;;;;-1.25;95.24;99601.56;1675122;84;21459;-71
2022/12/12 07:07:16;;;;;;;23.80;13.47;;;;;;;-1.26;95.30;99608.86;1674525;84;21041;-71
2022/12/12 07:09:45;;;;;;;21.20;11.30;;;;;;;-1.25;95.39;99605.42;1674914;84;21252;-75
2022/12/12 07:12:12;;;;;;;21.27;10.80;;;;;;;-1.22;95.41;99608.42;1674711;84;21134;-71
2022/12/12 07:14:39;;;;;;;20.70;11.70;;;;;;;-1.23;95.43;99602.42;1674892;84;21327;-71
2022/12/12 07:17:06;;;;;;;18.10;10.73;;;;;;;-1.21;95.50;99607.14;1674784;84;21025;-78
2022/12/12 07:19:33;;;;;;;16.17;9.90;;;;;;;-1.19;95.56;99600.29;1675286;84;21368;-71
2022/12/12 07:22:01;;;;;;;18.33;11.00;;;;;;;-1.18;95.60;99599.42;1674746;84;21085;-71
2022/12/12 07:24:28;;;;;;;16.63;10.43;;;;;;;-1.15;95.64;99606.27;1675153;84;21958;-71
2022/12/12 07:26:55;;;;;;;17.43;10.47;;;;;;;-1.13;95.65;99601.55;1677010;83;21052;-72
2022/12/12 07:29:22;;;;;;;19.97;11.30;;;;;;;-1.10;95.65;99600.69;1689490;83;21546;-75
2022/12/12 07:31:49;;;;;;;24.00;13.17;;;;;;;-1.08;95.53;99603.25;1696703;83;21057;-72
2022/12/12 07:34:16;;;;;;;24.40;14.40;;;;;;;-1.08;95.56;99604.53;1697917;83;21057;-72
2022/12/12 07:36:43;;;;;;;34.23;17.63;;;;;;;-1.07;95.57;99606.27;1683315;83;21202;-71
2022/12/12 07:39:10;;;;;;;22.50;12.90;;;;;;;-1.04;95.64;99608.82;1683592;83;21017;-71
2022/12/12 07:41:38;;;;;;;16.83;10.43;;;;;;;-1.01;95.72;99606.23;1681893;83;21057;-72
2022/12/12 07:44:05;;;;;;;17.70;10.93;;;;;;;-1.00;95.59;99604.08;1700266;83;21538;-72
2022/12/12 07:46:33;;;;;;;19.17;10.77;;;;;;;-1.00;95.65;99606.25;1702353;83;21236;-71
2022/12/12 07:49:00;;;;;;;20.83;10.67;;;;;;;-0.99;95.61;99606.66;1695938;83;21303;-72
2022/12/12 07:51:28;;;;;;;16.63;10.67;;;;;;;-0.98;95.58;99607.52;1693998;83;21080;-72
2022/12/12 07:53:56;;;;;;;18.23;10.60;;;;;;;-0.97;95.69;99604.95;1677062;83;21484;-71
2022/12/12 07:56:23;;;;;;;19.07;11.63;;;;;;;-0.94;95.72;99609.23;1664802;83;21062;-73
2022/12/12 07:58:52;;;;;;;19.67;11.77;;;;;;;-0.94;95.69;99615.23;1664129;83;21105;-72
2022/12/12 08:01:25;;;;;;;19.73;11.22;;;;;;;-0.95;95.57;99616.06;1657690;83;21299;-76
2022/12/12 08:03:53;;;;;;;22.67;13.47;;;;;;;-0.95;95.64;99621.21;1686758;83;21048;-73
2022/12/12 08:06:22;;;;;;;25.03;13.27;;;;;;;-0.95;95.66;99625.51;1683584;83;20964;-73
2022/12/12 08:08:51;;;;;;;19.03;11.67;;;;;;;-0.93;95.77;99630.22;1678480;84;21042;-72
2022/12/12 08:11:23;;;;;;;21.90;12.10;;;;;;;-0.92;95.80;99626.78;1677847;85;21134;-73
2022/12/12 08:13:51;;;;;;;19.60;11.53;;;;;;;-0.94;95.75;99618.23;1655727;85;21822;-76
2022/12/12 08:16:28;;;;;;;16.00;10.47;;;;;;;-0.95;95.71;99617.79;1660853;83;21084;-75
2022/12/12 08:18:58;;;;;;;19.73;11.17;;;;;;;-0.94;95.91;99615.66;1665269;84;21062;-74
2022/12/12 08:21:27;;;;;;;19.77;11.07;;;;;;;-0.94;95.90;99619.52;1676515;84;21407;-74
2022/12/12 08:24:00;;;;;;;28.77;14.13;;;;;;;-0.93;95.98;99624.64;1671664;85;21042;-73
2022/12/12 08:26:30;;;;;;;19.17;10.97;;;;;;;-0.90;96.06;99626.36;1662994;84;21258;-74
2022/12/12 08:28:58;;;;;;;28.67;14.80;;;;;;;-0.90;96.03;99631.06;1671169;83;21025;-73
2022/12/12 08:31:25;;;;;;;36.23;18.50;;;;;;;-0.89;96.00;99634.48;1661404;84;21053;-73
2022/12/12 08:33:53;;;;;;;26.07;14.70;;;;;;;-0.88;96.09;99632.36;1656862;85;21065;-77
2022/12/12 08:36:28;;;;;;;20.03;11.67;;;;;;;-0.86;96.23;99635.77;1664579;84;22172;-72
2022/12/12 08:38:55;;;;;;;20.23;11.60;;;;;;;-0.81;96.33;99638.33;1661210;85;22362;-73
2022/12/12 08:41:23;;;;;;;22.50;13.00;;;;;;;-0.78;96.23;99646.03;1646198;85;21047;-75
2022/12/12 08:43:51;;;;;;;22.07;13.67;;;;;;;-0.77;96.24;99640.90;1660121;85;21098;-76
2022/12/12 08:46:20;;;;;;;33.67;16.53;;;;;;;-0.75;96.27;99641.76;1658450;85;21054;-73
2022/12/12 08:48:48;;;;;;;23.87;13.20;;;;;;;-0.71;96.37;99642.59;1669399;85;21151;-74
2022/12/12 08:51:17;;;;;;;20.20;12.03;;;;;;;-0.69;96.30;99647.31;1675979;83;21111;-73
2022/12/12 08:53:47;;;;;;;26.50;14.57;;;;;;;-0.63;96.40;99650.30;1675507;84;21046;-74
2022/12/12 08:56:16;;;;;;;29.37;15.75;;;;;;;-0.60;96.42;99648.55;1675069;84;21021;-73
2022/12/12 08:58:45;;;;;;;25.37;14.40;;;;;;;-0.58;96.31;99648.13;1673530;84;21101;-73
2022/12/12 09:01:16;;;;;;;25.30;15.03;;;;;;;-0.54;96.45;99655.40;1681138;84;21045;-75
2022/12/12 09:03:44;;;;;;;42.47;20.50;;;;;;;-0.50;96.48;99651.94;1684396;85;21914;-75
2022/12/12 09:06:11;;;;;;;20.43;12.90;;;;;;;-0.47;96.51;99659.23;1684613;84;20954;-75
2022/12/12 09:08:39;;;;;;;41.03;20.10;;;;;;;-0.44;96.52;99655.80;1684452;84;21066;-74
2022/12/12 09:11:08;;;;;;;23.97;15.20;;;;;;;-0.41;96.45;99654.49;1684419;84;21572;-75
2022/12/12 09:13:36;;;;;;;34.43;17.23;;;;;;;-0.39;96.53;99659.17;1682634;84;21541;-74
2022/12/12 09:16:05;;;;;;;34.17;17.47;;;;;;;-0.35;96.52;99662.18;1667312;83;21242;-74
2022/12/12 09:18:32;;;;;;;30.00;16.40;;;;;;;-0.33;96.44;99660.90;1681933;83;21095;-73
2022/12/12 09:20:59;;;;;;;21.60;13.30;;;;;;;-0.33;96.39;99664.33;1681846;83;21034;-74
2022/12/12 09:23:27;;;;;;;21.47;13.37;;;;;;;-0.30;96.45;99666.03;1656539;83;21519;-74
2022/12/12 09:25:55;;;;;;;32.10;16.70;;;;;;;-0.31;96.31;99665.15;1656494;85;22205;-72
2022/12/12 09:28:25;;;;;;;21.87;13.50;;;;;;;-0.29;96.40;99669.02;1668285;84;21146;-72
2022/12/12 09:30:52;;;;;;;23.90;12.93;;;;;;;-0.25;96.34;99669.01;1670822;84;20995;-73
2022/12/12 09:33:20;;;;;;;21.70;13.10;;;;;;;-0.23;96.37;99671.13;1670019;84;21038;-73
2022/12/12 09:35:47;;;;;;;22.97;14.00;;;;;;;-0.21;96.29;99669.84;1670528;84;21054;-73
2022/12/12 09:38:14;;;;;;;21.07;12.87;;;;;;;-0.18;96.34;99668.53;1673040;84;21488;-72
2022/12/12 09:40:58;;;;;;;22.37;13.57;;;;;;;-0.16;96.29;99673.69;1670535;84;21207;-72
2022/12/12 09:43:36;;;;;;;18.10;12.17;;;;;;;-0.12;96.34;99672.80;1671021;84;21038;-73
2022/12/12 09:46:08;;;;;;;16.47;10.63;;;;;;;-0.09;96.27;99674.06;1680989;84;21452;-74
2022/12/12 09:48:43;;;;;;;24.43;14.07;;;;;;;-0.08;96.14;99668.06;1670447;84;21042;-74
2022/12/12 09:51:11;;;;;;;26.20;14.57;;;;;;;-0.04;96.23;99668.45;1669998;84;21737;-72
2022/12/12 09:53:41;;;;;;;16.07;10.13;;;;;;;0.02;96.18;99660.69;1670344;84;21119;-74
2022/12/12 09:56:42;;;;;;;18.23;10.90;;;;;;;0.11;96.23;99655.50;1670112;84;21031;-75
2022/12/12 09:59:33;;;;;;;17.55;11.12;;;;;;;0.19;96.16;99661.45;1669764;84;21090;-77
2022/12/12 10:02:24;;;;;;;19.10;11.20;;;;;;;0.30;96.14;99661.35;1689432;84;21081;-76
2022/12/12 10:05:15;;;;;;;23.13;13.83;;;;;;;0.41;96.14;99659.98;1669717;84;21057;-74
2022/12/12 10:08:06;;;;;;;17.07;10.95;;;;;;;0.49;96.04;99655.63;1670871;84;22479;-75
2022/12/12 10:10:46;;;;;;;17.07;10.87;;;;;;;0.55;95.81;99652.99;1669498;84;21091;-74
2022/12/12 10:13:20;;;;;;;17.20;10.68;;;;;;;0.59;95.68;99652.55;1670055;84;21087;-73
2022/12/12 10:15:52;;;;;;;17.13;11.03;;;;;;;0.62;95.51;99659.83;1688403;84;21110;-72
2022/12/12 10:18:28;;;;;;;17.10;10.63;;;;;;;0.70;95.49;99660.20;1669773;84;21065;-72
2022/12/12 10:20:59;;;;;;;15.23;9.80;;;;;;;0.77;95.47;99654.95;1672046;84;21328;-74
2022/12/12 10:23:40;;;;;;;14.27;9.17;;;;;;;0.87;95.26;99650.58;1676827;83;21097;-74
2022/12/12 10:26:18;;;;;;;13.00;8.67;;;;;;;1.02;95.40;99652.98;1661885;85;21112;-74
2022/12/12 10:28:54;;;;;;;12.37;7.77;;;;;;;1.27;95.38;99654.02;1647432;85;21050;-74
2022/12/12 10:31:51;;;;;;;11.40;7.27;;;;;;;1.42;94.97;99649.98;1681105;84;20986;-75
2022/12/12 10:34:31;;;;;;;12.70;8.33;;;;;;;1.55;94.63;99648.09;1669132;85;21105;-74
2022/12/12 10:37:30;;;;;;;13.45;8.75;;;;;;;1.76;94.40;99650.85;1665173;85;21046;-75
2022/12/12 10:40:20;;;;;;;10.80;7.17;;;;;;;1.84;94.18;99649.02;1687680;83;21479;-75
2022/12/12 10:42:56;;;;;;;10.85;6.30;;;;;;;1.90;93.56;99650.22;1697092;83;21018;-75
2022/12/12 10:45:47;;;;;;;9.63;6.17;;;;;;;1.90;93.27;99655.39;1694683;83;20994;-78
2022/12/12 10:48:14;;;;;;;16.07;8.60;;;;;;;1.95;93.19;99651.46;1697593;83;21950;-75
2022/12/12 10:50:59;;;;;;;8.63;6.07;;;;;;;1.96;93.00;99650.57;1715384;83;21480;-77
2022/12/12 10:53:29;;;;;;;11.57;6.30;;;;;;;1.96;92.86;99660.47;1697187;83;21026;-76
2022/12/12 10:56:00;;;;;;;9.83;6.58;;;;;;;1.89;92.59;99658.86;1721424;83;21506;-76
2022/12/12 10:58:38;;;;;;;9.63;6.40;;;;;;;1.88;92.51;99657.13;1692258;83;21042;-77
2022/12/12 11:01:13;;;;;;;9.03;5.47;;;;;;;1.90;92.55;99652.80;1708191;83;21140;-74
2022/12/12 11:03:51;;;;;;;11.03;6.27;;;;;;;1.95;92.55;99652.75;1697915;83;21078;-74
2022/12/12 11:06:51;;;;;;;7.57;4.90;;;;;;;2.04;92.55;99651.32;1698900;83;21075;-76
2022/12/12 11:09:22;;;;;;;7.30;4.13;;;;;;;2.07;92.24;99652.56;1691106;83;20994;-75
2022/12/12 11:12:10;;;;;;;23.77;12.33;;;;;;;2.14;92.10;99658.08;1698484;83;21029;-77
2022/12/12 11:14:49;;;;;;;11.10;6.37;;;;;;;2.23;91.75;99654.05;1698742;83;21460;-76
2022/12/12 11:17:27;;;;;;;8.35;5.08;;;;;;;2.30;91.38;99650.95;1698545;83;20986;-76
2022/12/12 11:19:58;;;;;;;8.70;4.87;;;;;;;2.42;91.08;99655.07;1698386;83;21495;-77
2022/12/12 11:22:26;;;;;;;8.90;4.70;;;;;;;2.54;90.76;99657.89;1698405;83;21029;-75
2022/12/12 11:24:54;;;;;;;8.80;4.57;;;;;;;2.67;90.64;99647.32;1698480;83;21026;-76
2022/12/12 11:27:34;;;;;;;7.33;4.73;;;;;;;2.72;90.26;99650.28;1698758;83;21081;-75
2022/12/12 11:30:06;;;;;;;10.93;5.58;;;;;;;2.78;90.24;99652.31;1688670;83;21089;-77
2022/12/12 11:32:43;;;;;;;9.40;5.40;;;;;;;2.75;89.58;99650.23;1689655;83;21066;-80
2022/12/12 11:35:33;;;;;;;7.23;4.97;;;;;;;2.78;89.33;99651.47;1689757;83;20957;-76
2022/12/12 11:38:20;;;;;;;;;;;;;;;2.81;89.48;99660.47;1686597;83;21031;-77
2022/12/12 11:41:00;;;;;;;7.97;4.30;;;;;;;2.81;88.73;99659.17;1689967;83;21098;-76
2022/12/12 11:43:31;;;;;;;9.93;4.67;;;;;;;2.83;89.00;99665.19;1689723;83;21013;-76
2022/12/12 11:46:15;;;;;;;7.43;4.10;;;;;;;2.94;89.08;99667.56;1690119;83;21006;-76
2022/12/12 11:48:53;;;;;;;12.13;6.63;;;;;;;3.04;88.96;99665.23;1689663;83;21437;-76
2022/12/12 11:51:40;;;;;;;12.73;6.60;;;;;;;3.12;88.57;99660.32;1687642;83;21018;-76
2022/12/12 11:54:20;;;;;;;13.33;8.10;;;;;;;3.19;88.49;99660.20;1689757;83;21187;-78
2022/12/12 11:56:51;;;;;;;;;;;;;;;3.22;88.10;99664.90;1692988;83;21024;-78
2022/12/12 11:59:41;;;;;;;5.22;3.30;;;;;;;3.17;87.53;99660.24;1684035;83;20175;-78
2022/12/12 12:02:25;;;;;;;30.32;13.30;;;;;;;3.17;87.40;99668.46;1690829;83;21061;-75